RJBB/KIX METAR and TAF weather

Enter ICAO airport designator
Station Type Date Time Source
RJBB METAR 2021/03/07 07:30 UTC NOAA

RJBB 070730Z 31007KT 280V360 9999 FEW030 BKN040 10/04 Q1023 BECMG 34005KT


Station Type Date Time Source
RJBB Decoded METAR 2021/03/07 07:30 UTC NOAA

Kansai International Airport, Japan (RJBB) 34-25N 135-15E 8M
Mar 07, 2021 - 02:30 AM EST / 2021.03.07 0730 UTC
Wind: from the NW (310 degrees) at 8 MPH (7 KT) (direction variable):0
Visibility: greater than 7 mile(s):0
Sky conditions: mostly cloudy
Temperature: 50 F (10 C)
Dew Point: 39 F (4 C)
Relative Humidity: 66%
Pressure (altimeter): 30.21 in. Hg (1023 hPa)
ob: RJBB 070730Z 31007KT 280V360 9999 FEW030 BKN040 10/04 Q1023 BECMG 34005KT
cycle: 7

Station Type Date Time Source
RJBB TAF 2021/03/07 06:30 UTC NOAA

TAF TAF RJBB 070506Z 0706/0812 34004KT 9999 FEW025 BKN040
BECMG 0709/0711 04012KT
TEMPO 0715/0721 4000 RA BR

Example: see airport list